createdAt,value
2018-03-28T00:00:01.372Z,79.18
2018-03-28T00:02:27.135Z,79.17
2018-03-28T00:04:52.895Z,78.96
2018-03-28T00:07:18.659Z,78.99
2018-03-28T00:09:44.437Z,79.30
2018-03-28T00:12:10.205Z,79.10
2018-03-28T00:14:35.970Z,78.76
2018-03-28T00:17:01.750Z,78.44
2018-03-28T00:19:27.509Z,78.62
2018-03-28T00:21:53.273Z,78.99
2018-03-28T00:24:19.031Z,78.76
2018-03-28T00:26:44.804Z,78.82
2018-03-28T00:29:10.556Z,79.13
2018-03-28T00:31:36.312Z,78.79
2018-03-28T00:34:02.062Z,78.95
2018-03-28T00:36:27.816Z,78.71
2018-03-28T00:38:53.598Z,78.67
2018-03-28T00:41:19.367Z,78.69
2018-03-28T00:43:45.129Z,78.91
2018-03-28T00:46:11.683Z,79.12
2018-03-28T00:48:37.448Z,78.94
2018-03-28T00:51:15.727Z,78.95
2018-03-28T00:53:41.488Z,78.89
2018-03-28T00:56:07.250Z,78.98
2018-03-28T00:58:33.016Z,78.69
2018-03-28T01:00:58.787Z,78.67
2018-03-28T01:03:24.550Z,78.62
2018-03-28T01:05:50.313Z,78.57
2018-03-28T01:08:16.100Z,78.71
2018-03-28T01:10:41.857Z,78.76
2018-03-28T01:13:07.628Z,78.91
2018-03-28T01:15:33.374Z,78.59
2018-03-28T01:17:59.138Z,78.56
2018-03-28T01:20:24.898Z,78.75
2018-03-28T01:22:50.665Z,78.52
2018-03-28T01:25:16.425Z,78.59
2018-03-28T01:27:42.195Z,78.48
2018-03-28T01:30:07.951Z,78.63
2018-03-28T01:32:33.718Z,78.69
2018-03-28T01:34:59.487Z,78.57
2018-03-28T01:37:25.258Z,78.32
2018-03-28T01:39:51.014Z,78.57
2018-03-28T01:42:16.782Z,78.70
2018-03-28T01:44:42.526Z,78.40
2018-03-28T01:47:08.282Z,78.46
2018-03-28T01:49:34.055Z,78.48
2018-03-28T01:51:59.833Z,78.41
2018-03-28T01:54:25.604Z,78.39
2018-03-28T01:56:51.361Z,78.62
2018-03-28T01:59:17.139Z,78.71
2018-03-28T02:01:42.895Z,78.38
2018-03-28T02:04:08.676Z,78.46
2018-03-28T02:06:34.429Z,78.36
2018-03-28T02:09:00.203Z,78.29
2018-03-28T02:11:25.950Z,78.09
2018-03-28T02:13:51.690Z,77.95
2018-03-28T02:16:17.450Z,78.02
2018-03-28T02:18:43.234Z,78.16
2018-03-28T02:21:08.999Z,77.97
2018-03-28T02:23:34.755Z,77.80
2018-03-28T02:26:00.523Z,77.82
2018-03-28T02:28:26.275Z,77.86
2018-03-28T02:30:52.044Z,78.24
2018-03-28T02:33:17.805Z,78.27
2018-03-28T02:35:43.584Z,78.70
2018-03-28T02:38:09.352Z,79.02
2018-03-28T02:40:35.115Z,79.18
2018-03-28T02:43:00.875Z,79.58
2018-03-28T02:45:26.667Z,79.85
2018-03-28T02:47:52.431Z,79.92
2018-03-28T02:50:18.207Z,80.14
2018-03-28T02:52:43.988Z,80.30
2018-03-28T02:55:09.834Z,80.48
2018-03-28T02:57:35.522Z,80.52
2018-03-28T03:00:01.320Z,80.50
2018-03-28T03:02:27.059Z,80.69
2018-03-28T03:04:52.826Z,80.48
2018-03-28T03:07:18.611Z,80.52
2018-03-28T03:09:44.364Z,80.67
2018-03-28T03:12:10.131Z,80.55
2018-03-28T03:14:35.873Z,80.50
2018-03-28T03:17:01.643Z,79.96
2018-03-28T03:19:27.410Z,80.13
2018-03-28T03:21:53.178Z,80.15
2018-03-28T03:24:18.959Z,79.90
2018-03-28T03:26:44.722Z,80.00
2018-03-28T03:29:10.482Z,80.05
2018-03-28T03:31:36.275Z,80.01
2018-03-28T03:34:02.028Z,80.16
2018-03-28T03:36:27.818Z,79.90
2018-03-28T03:38:53.578Z,79.89
2018-03-28T03:41:19.339Z,79.30
2018-03-28T03:43:45.102Z,79.10
2018-03-28T03:46:10.874Z,79.22
2018-03-28T03:48:36.626Z,79.12
2018-03-28T03:51:02.393Z,79.13
2018-03-28T03:53:28.149Z,79.00
2018-03-28T03:55:53.905Z,78.95
2018-03-28T03:58:19.702Z,78.66
2018-03-28T04:00:45.455Z,78.70
2018-03-28T04:03:11.221Z,79.00
2018-03-28T04:05:37.002Z,78.85
2018-03-28T04:08:02.762Z,79.20
2018-03-28T04:10:28.518Z,79.85
2018-03-28T04:12:54.275Z,80.18
2018-03-28T04:15:20.020Z,80.80
2018-03-28T04:17:45.762Z,80.23
2018-03-28T04:20:11.501Z,80.50
2018-03-28T04:22:37.249Z,80.90
2018-03-28T04:25:02.989Z,80.37
2018-03-28T04:27:28.710Z,80.61
2018-03-28T04:29:54.453Z,80.64
2018-03-28T04:32:20.178Z,80.36
2018-03-28T04:34:45.918Z,80.32
2018-03-28T04:37:11.662Z,80.37
2018-03-28T04:39:37.403Z,80.60
2018-03-28T04:42:03.137Z,80.40
2018-03-28T04:44:28.882Z,80.56
2018-03-28T04:46:54.602Z,80.32
2018-03-28T04:49:20.347Z,80.64
2018-03-28T04:51:46.085Z,80.70
2018-03-28T04:54:11.835Z,80.40
2018-03-28T04:56:37.566Z,80.64
2018-03-28T04:59:03.335Z,80.81
2018-03-28T05:01:29.082Z,81.10
2018-03-28T05:03:54.834Z,81.54
2018-03-28T05:06:20.566Z,82.14
2018-03-28T05:08:46.318Z,82.27
2018-03-28T05:11:12.054Z,82.77
2018-03-28T05:13:37.795Z,83.19
2018-03-28T05:16:03.566Z,83.09
2018-03-28T05:18:29.313Z,83.02
2018-03-28T05:20:55.050Z,83.21
2018-03-28T05:23:20.795Z,83.45
2018-03-28T05:25:46.537Z,83.06
2018-03-28T05:28:12.283Z,83.82
2018-03-28T05:30:38.030Z,83.65
2018-03-28T05:33:03.766Z,84.18
2018-03-28T05:35:29.509Z,84.25
2018-03-28T05:37:55.242Z,84.21
2018-03-28T05:40:20.980Z,84.25
2018-03-28T05:42:46.742Z,85.01
2018-03-28T05:45:12.477Z,84.98
2018-03-28T05:47:38.218Z,84.78
2018-03-28T05:50:03.967Z,85.41
2018-03-28T05:52:29.703Z,85.59
2018-03-28T05:54:55.454Z,85.51
2018-03-28T05:57:21.184Z,85.69
2018-03-28T05:59:46.913Z,85.80
2018-03-28T06:02:12.658Z,85.10
2018-03-28T06:04:38.397Z,85.37
2018-03-28T06:07:04.157Z,85.36
2018-03-28T06:09:29.898Z,85.08
2018-03-28T06:11:55.642Z,85.02
2018-03-28T06:14:21.366Z,85.07
2018-03-28T06:16:47.131Z,85.11
2018-03-28T06:19:12.873Z,84.70
2018-03-28T06:21:38.615Z,84.94
2018-03-28T06:24:04.363Z,85.28
2018-03-28T06:26:30.130Z,85.03
2018-03-28T06:28:55.871Z,85.21
2018-03-28T06:31:21.630Z,85.01
2018-03-28T06:33:47.370Z,85.23
2018-03-28T06:36:13.155Z,85.39
2018-03-28T06:38:38.846Z,85.27
2018-03-28T06:41:04.598Z,85.15
2018-03-28T06:43:30.335Z,85.17
2018-03-28T06:45:56.077Z,84.87
2018-03-28T06:48:21.818Z,84.90
2018-03-28T06:50:47.575Z,84.85
2018-03-28T06:53:13.318Z,84.87
2018-03-28T06:55:39.074Z,84.38
2018-03-28T06:58:04.822Z,84.12
2018-03-28T07:00:30.553Z,84.12
2018-03-28T07:02:56.298Z,83.76
2018-03-28T07:05:22.051Z,83.56
2018-03-28T07:07:47.806Z,83.37
2018-03-28T07:10:13.538Z,83.39
2018-03-28T07:12:39.299Z,83.35
2018-03-28T07:15:05.050Z,82.84
2018-03-28T07:17:30.791Z,82.59
2018-03-28T07:19:56.545Z,82.73
2018-03-28T07:22:22.303Z,82.18
2018-03-28T07:24:48.046Z,82.09
2018-03-28T07:27:13.789Z,81.66
2018-03-28T07:29:39.538Z,81.74
2018-03-28T07:32:05.286Z,81.17
2018-03-28T07:34:31.034Z,81.22
2018-03-28T07:36:56.800Z,80.67
2018-03-28T07:39:22.546Z,80.58
2018-03-28T07:41:48.281Z,80.04
2018-03-28T07:44:14.034Z,80.30
2018-03-28T07:46:39.768Z,80.27
2018-03-28T07:49:05.514Z,79.71
2018-03-28T07:51:31.262Z,79.25
2018-03-28T07:53:56.997Z,79.05
2018-03-28T07:56:22.762Z,79.23
2018-03-28T07:58:48.518Z,78.98
2018-03-28T08:01:14.256Z,78.85
2018-03-28T08:03:40.003Z,79.29
2018-03-28T08:06:05.759Z,78.59
2018-03-28T08:08:31.507Z,78.38
2018-03-28T08:10:57.255Z,78.55
2018-03-28T08:13:23.000Z,78.47
2018-03-28T08:15:48.739Z,78.15
2018-03-28T08:18:14.478Z,77.88
2018-03-28T08:20:40.194Z,77.71
2018-03-28T08:23:05.931Z,77.75
2018-03-28T08:25:31.658Z,77.17
2018-03-28T08:27:57.418Z,76.99
2018-03-28T08:30:23.154Z,77.40
2018-03-28T08:32:48.891Z,77.48
2018-03-28T08:35:14.706Z,77.37
2018-03-28T08:37:40.442Z,77.33
2018-03-28T08:40:06.466Z,76.90
2018-03-28T08:42:32.197Z,77.01
2018-03-28T08:44:57.975Z,76.76
2018-03-28T08:47:23.966Z,77.20
2018-03-28T08:49:49.986Z,76.89
2018-03-28T08:52:15.891Z,77.66
2018-03-28T08:54:41.630Z,77.68
2018-03-28T08:57:07.552Z,77.67
2018-03-28T08:59:33.297Z,77.70
2018-03-28T09:01:59.264Z,77.96
2018-03-28T09:04:25.087Z,78.01
2018-03-28T09:06:50.854Z,77.53
2018-03-28T09:09:16.594Z,77.70
2018-03-28T09:11:42.342Z,78.42
2018-03-28T09:14:08.632Z,78.61
2018-03-28T09:16:34.392Z,79.05
2018-03-28T09:19:00.397Z,78.66
2018-03-28T09:21:26.334Z,78.68
2018-03-28T09:23:52.081Z,78.96
2018-03-28T09:26:17.880Z,79.17
2018-03-28T09:28:43.627Z,79.60
2018-03-28T09:31:09.371Z,78.66
2018-03-28T09:33:35.127Z,79.25
2018-03-28T09:36:00.876Z,78.97
2018-03-28T09:38:26.601Z,80.18
2018-03-28T09:40:52.348Z,79.81
2018-03-28T09:43:18.103Z,79.73
2018-03-28T09:45:44.224Z,79.69
2018-03-28T09:48:09.954Z,79.84
2018-03-28T09:50:35.733Z,79.32
2018-03-28T09:53:01.488Z,78.35
2018-03-28T09:55:27.246Z,78.66
2018-03-28T09:57:53.002Z,78.00
2018-03-28T10:00:25.038Z,78.16
2018-03-28T10:02:50.783Z,77.96
2018-03-28T10:05:16.539Z,77.30
2018-03-28T10:07:42.290Z,76.51
2018-03-28T10:10:08.038Z,77.16
2018-03-28T10:12:33.805Z,76.91
2018-03-28T10:14:59.570Z,76.94
2018-03-28T10:17:25.322Z,76.62
2018-03-28T10:19:51.086Z,77.09
2018-03-28T10:22:16.831Z,76.63
2018-03-28T10:24:42.587Z,77.02
2018-03-28T10:27:08.324Z,77.18
2018-03-28T10:29:34.074Z,77.27
2018-03-28T10:31:59.870Z,76.84
2018-03-28T10:34:25.617Z,77.80
2018-03-28T10:36:51.375Z,77.29
2018-03-28T10:39:17.134Z,78.01
2018-03-28T10:41:42.869Z,77.78
2018-03-28T10:44:08.614Z,77.88
2018-03-28T10:46:34.353Z,77.31
2018-03-28T10:49:00.110Z,77.25
2018-03-28T10:51:25.859Z,76.55
2018-03-28T10:53:51.625Z,77.25
2018-03-28T10:56:17.374Z,76.59
2018-03-28T10:58:43.111Z,76.30
2018-03-28T11:01:08.894Z,75.76
2018-03-28T11:03:34.641Z,75.41
2018-03-28T11:06:00.378Z,75.00
2018-03-28T11:08:26.118Z,74.97
2018-03-28T11:10:51.865Z,75.18
2018-03-28T11:13:17.621Z,74.84
2018-03-28T11:15:43.362Z,75.00
2018-03-28T11:18:09.107Z,74.80
2018-03-28T11:20:34.869Z,74.24
2018-03-28T11:23:00.618Z,74.06
2018-03-28T11:25:26.370Z,73.24
2018-03-28T11:27:52.104Z,73.20
2018-03-28T11:30:17.862Z,73.38
2018-03-28T11:32:43.611Z,72.65
2018-03-28T11:35:09.372Z,72.84
2018-03-28T11:37:35.112Z,73.68
2018-03-28T11:40:00.871Z,73.09
2018-03-28T11:42:26.631Z,74.40
2018-03-28T11:44:52.369Z,74.24
2018-03-28T11:47:18.102Z,74.08
2018-03-28T11:49:43.871Z,73.79
2018-03-28T11:52:09.607Z,74.61
2018-03-28T11:54:35.353Z,75.12
2018-03-28T11:57:01.104Z,74.34
2018-03-28T11:59:26.861Z,74.58
2018-03-28T12:01:52.596Z,74.71
2018-03-28T12:04:18.346Z,74.43
2018-03-28T12:06:44.078Z,74.53
2018-03-28T12:09:09.834Z,74.46
2018-03-28T12:11:35.577Z,74.05
2018-03-28T12:14:01.338Z,73.80
2018-03-28T12:16:27.086Z,73.44
2018-03-28T12:18:52.832Z,73.19
2018-03-28T12:21:18.583Z,73.64
2018-03-28T12:23:44.326Z,74.15
2018-03-28T12:26:10.066Z,74.47
2018-03-28T12:28:35.806Z,74.11
2018-03-28T12:31:01.574Z,75.07
2018-03-28T12:33:27.299Z,75.52
2018-03-28T12:35:53.044Z,75.55
2018-03-28T12:38:18.770Z,76.66
2018-03-28T12:40:44.502Z,76.96
2018-03-28T12:43:10.228Z,76.99
2018-03-28T12:45:35.981Z,77.36
2018-03-28T12:48:01.728Z,76.93
2018-03-28T12:50:27.502Z,77.76
2018-03-28T12:52:53.238Z,77.29
2018-03-28T12:55:18.995Z,76.78
2018-03-28T12:57:44.739Z,76.80
2018-03-28T13:00:10.473Z,76.41
2018-03-28T13:02:36.210Z,75.53
2018-03-28T13:05:01.946Z,75.80
2018-03-28T13:07:27.688Z,76.14
2018-03-28T13:09:53.417Z,75.85
2018-03-28T13:12:19.161Z,75.70
2018-03-28T13:14:44.883Z,75.43
2018-03-28T13:17:10.627Z,75.70
2018-03-28T13:19:36.374Z,75.07
2018-03-28T13:22:02.126Z,74.83
2018-03-28T13:24:27.874Z,74.56
2018-03-28T13:26:53.631Z,73.82
2018-03-28T13:29:19.362Z,74.09
2018-03-28T13:31:45.098Z,73.91
2018-03-28T13:34:10.829Z,74.21
2018-03-28T13:36:36.579Z,74.36
2018-03-28T13:39:02.309Z,74.32
2018-03-28T13:41:28.033Z,73.99
2018-03-28T13:43:53.779Z,73.87
2018-03-28T13:46:19.521Z,74.10
2018-03-28T13:48:45.266Z,74.12
2018-03-28T13:51:11.232Z,74.03
2018-03-28T13:53:36.982Z,74.46
2018-03-28T13:56:02.724Z,74.74
2018-03-28T13:58:28.476Z,74.45
2018-03-28T14:00:54.226Z,75.27
2018-03-28T14:03:19.966Z,75.64
2018-03-28T14:05:45.733Z,76.06
2018-03-28T14:08:11.461Z,76.23
2018-03-28T14:10:37.183Z,76.75
2018-03-28T14:13:02.930Z,76.82
2018-03-28T14:15:28.706Z,76.64
2018-03-28T14:17:54.437Z,77.03
2018-03-28T14:20:20.175Z,77.51
2018-03-28T14:22:45.914Z,77.96
2018-03-28T14:25:11.659Z,78.02
2018-03-28T14:27:37.415Z,78.27
2018-03-28T14:30:03.164Z,78.84
2018-03-28T14:32:28.894Z,78.92
2018-03-28T14:34:54.639Z,79.22
2018-03-28T14:37:20.375Z,79.65
2018-03-28T14:39:46.137Z,79.09
2018-03-28T14:42:11.887Z,79.88
2018-03-28T14:44:37.652Z,78.99
2018-03-28T14:47:03.394Z,79.38
2018-03-28T14:49:29.153Z,80.57
2018-03-28T14:51:54.894Z,81.74
2018-03-28T14:54:20.653Z,81.44
2018-03-28T14:56:46.405Z,81.85
2018-03-28T14:59:12.159Z,82.31
2018-03-28T15:01:37.890Z,82.25
2018-03-28T15:04:03.646Z,82.11
2018-03-28T15:06:29.385Z,82.85
2018-03-28T15:08:55.154Z,82.56
2018-03-28T15:11:20.901Z,82.66
2018-03-28T15:13:46.650Z,82.84
2018-03-28T15:16:12.381Z,82.98
2018-03-28T15:18:38.133Z,82.77
2018-03-28T15:21:03.879Z,82.40
2018-03-28T15:23:29.635Z,82.59
2018-03-28T15:25:55.391Z,82.17
2018-03-28T15:28:21.136Z,82.26
2018-03-28T15:30:46.891Z,82.01
2018-03-28T15:33:12.625Z,82.69
2018-03-28T15:35:38.370Z,81.77
2018-03-28T15:38:04.140Z,82.38
2018-03-28T15:40:29.865Z,81.49
2018-03-28T15:42:55.604Z,80.87
2018-03-28T15:45:21.354Z,81.17
2018-03-28T15:47:47.086Z,80.91
2018-03-28T15:50:12.873Z,80.77
2018-03-28T15:52:38.610Z,81.23
2018-03-28T15:55:04.366Z,81.25
2018-03-28T15:57:30.116Z,81.29
2018-03-28T15:59:55.859Z,81.79
2018-03-28T16:02:21.616Z,81.68
2018-03-28T16:04:47.362Z,81.50
2018-03-28T16:07:13.116Z,81.96
2018-03-28T16:09:38.875Z,82.06
2018-03-28T16:12:04.641Z,82.01
2018-03-28T16:14:30.366Z,82.23
2018-03-28T16:16:56.119Z,82.00
2018-03-28T16:19:21.861Z,82.64
2018-03-28T16:21:47.614Z,81.81
2018-03-28T16:24:13.342Z,81.84
2018-03-28T16:26:39.082Z,81.76
2018-03-28T16:29:04.826Z,81.80
2018-03-28T16:31:30.566Z,81.85
2018-03-28T16:33:56.315Z,81.62
2018-03-28T16:36:22.057Z,81.71
2018-03-28T16:38:47.815Z,81.80
2018-03-28T16:41:13.565Z,81.92
2018-03-28T16:43:39.314Z,81.39
2018-03-28T16:46:05.075Z,81.12
2018-03-28T16:48:30.842Z,81.40
2018-03-28T16:50:56.586Z,80.94
2018-03-28T16:53:22.331Z,80.93
2018-03-28T16:55:48.087Z,80.63
2018-03-28T16:58:13.826Z,80.76
2018-03-28T17:00:39.599Z,80.60
2018-03-28T17:03:05.362Z,80.61
2018-03-28T17:05:31.106Z,81.13
2018-03-28T17:07:56.857Z,81.58
2018-03-28T17:10:22.605Z,82.39
2018-03-28T17:12:48.369Z,83.24
2018-03-28T17:15:14.172Z,84.69
2018-03-28T17:17:39.898Z,85.46
2018-03-28T17:20:05.663Z,86.16
2018-03-28T17:22:31.427Z,86.12
2018-03-28T17:24:57.181Z,86.42
2018-03-28T17:27:22.966Z,87.08
2018-03-28T17:29:48.721Z,87.30
2018-03-28T17:32:14.479Z,88.46
2018-03-28T17:34:40.244Z,89.38
2018-03-28T17:37:06.002Z,90.00
2018-03-28T17:39:31.782Z,90.21
2018-03-28T17:41:57.537Z,91.17
2018-03-28T17:44:23.280Z,91.62
2018-03-28T17:46:49.022Z,92.62
2018-03-28T17:49:14.765Z,92.76
2018-03-28T17:51:40.498Z,93.22
2018-03-28T17:54:06.255Z,93.72
2018-03-28T17:56:31.978Z,93.83
2018-03-28T17:58:57.738Z,94.28
2018-03-28T18:01:23.490Z,94.39
2018-03-28T18:03:49.242Z,94.89
2018-03-28T18:06:15.073Z,94.84
2018-03-28T18:08:41.394Z,94.97
2018-03-28T18:11:07.143Z,95.31
2018-03-28T18:13:36.730Z,95.38
2018-03-28T18:16:02.466Z,95.65
2018-03-28T18:18:28.211Z,95.63
2018-03-28T18:20:53.963Z,95.94
2018-03-28T18:23:19.730Z,96.13
2018-03-28T18:25:45.495Z,96.14
2018-03-28T18:28:11.275Z,96.42
2018-03-28T18:30:37.027Z,96.59
2018-03-28T18:33:02.782Z,96.56
2018-03-28T18:35:28.526Z,96.81
2018-03-28T18:37:54.275Z,96.92
2018-03-28T18:40:20.023Z,96.86
2018-03-28T18:42:45.775Z,96.97
2018-03-28T18:45:11.535Z,97.20
2018-03-28T18:47:37.314Z,97.21
2018-03-28T18:50:03.047Z,97.43
2018-03-28T18:52:28.791Z,97.44
2018-03-28T18:54:54.530Z,97.69
2018-03-28T18:57:20.269Z,97.60
2018-03-28T18:59:46.006Z,97.60
2018-03-28T19:02:11.743Z,97.61
2018-03-28T19:04:37.484Z,97.58
2018-03-28T19:07:03.238Z,97.69
2018-03-28T19:09:28.991Z,97.70
2018-03-28T19:11:54.726Z,97.63
2018-03-28T19:14:20.478Z,97.75
2018-03-28T19:16:46.222Z,97.98
2018-03-28T19:19:11.979Z,97.95
2018-03-28T19:21:37.731Z,98.27
2018-03-28T19:24:03.465Z,98.14
2018-03-28T19:26:29.230Z,98.18
2018-03-28T19:28:54.957Z,98.20
2018-03-28T19:31:20.709Z,98.35
2018-03-28T19:33:46.447Z,98.53
2018-03-28T19:36:12.199Z,98.49
2018-03-28T19:38:37.951Z,98.29
2018-03-28T19:41:03.700Z,98.35
2018-03-28T19:43:29.430Z,98.37
2018-03-28T19:45:55.190Z,98.68
2018-03-28T19:48:20.968Z,98.67
2018-03-28T19:50:46.696Z,98.67
2018-03-28T19:53:12.438Z,98.79
2018-03-28T19:55:38.202Z,98.67
2018-03-28T19:58:03.942Z,98.73
2018-03-28T20:00:29.771Z,98.87
2018-03-28T20:02:55.444Z,98.85
2018-03-28T20:05:21.194Z,98.91
2018-03-28T20:07:46.941Z,99.08
2018-03-28T20:10:12.710Z,99.18
2018-03-28T20:12:38.461Z,99.23
2018-03-28T20:15:04.205Z,99.29
2018-03-28T20:17:29.949Z,99.33
2018-03-28T20:19:55.692Z,99.30
2018-03-28T20:22:21.454Z,99.31
2018-03-28T20:24:47.194Z,99.35
2018-03-28T20:27:12.969Z,99.41
2018-03-28T20:29:38.712Z,99.35
2018-03-28T20:32:04.475Z,99.29
2018-03-28T20:34:30.235Z,99.33
2018-03-28T20:36:55.994Z,99.48
2018-03-28T20:39:21.742Z,99.36
2018-03-28T20:41:47.511Z,99.42
2018-03-28T20:44:13.259Z,99.29
2018-03-28T20:46:39.054Z,99.28
2018-03-28T20:49:04.826Z,99.40
2018-03-28T20:51:30.710Z,99.37
2018-03-28T20:53:56.473Z,99.40
2018-03-28T20:56:22.779Z,99.51
2018-03-28T20:58:48.539Z,99.41
2018-03-28T21:01:14.316Z,99.40
2018-03-28T21:03:40.074Z,99.35
2018-03-28T21:06:05.826Z,99.42
2018-03-28T21:08:31.578Z,99.39
2018-03-28T21:10:58.250Z,99.49
2018-03-28T21:13:24.024Z,99.37
2018-03-28T21:15:49.807Z,99.24
2018-03-28T21:18:15.565Z,99.27
2018-03-28T21:20:41.318Z,99.38
2018-03-28T21:23:07.104Z,99.42
2018-03-28T21:25:32.855Z,99.44
2018-03-28T21:27:58.657Z,99.71
2018-03-28T21:30:24.433Z,99.76
2018-03-28T21:32:50.235Z,99.71
2018-03-28T21:35:15.983Z,99.84
2018-03-28T21:37:41.744Z,99.96
2018-03-28T21:40:07.546Z,99.99
2018-03-28T21:42:33.282Z,100.00
2018-03-28T21:44:59.031Z,100.00
2018-03-28T21:47:24.780Z,100.00
2018-03-28T21:49:50.534Z,100.00
2018-03-28T21:52:16.287Z,100.00
2018-03-28T21:54:42.034Z,100.00
2018-03-28T21:57:07.787Z,100.00
2018-03-28T21:59:33.526Z,100.00
2018-03-28T22:01:59.259Z,100.00
2018-03-28T22:04:24.989Z,100.00
2018-03-28T22:06:57.726Z,100.00
2018-03-28T22:09:23.480Z,100.00
2018-03-28T22:11:49.224Z,100.00
2018-03-28T22:14:14.977Z,100.00
2018-03-28T22:16:40.723Z,100.00
2018-03-28T22:19:06.469Z,100.00
2018-03-28T22:21:32.221Z,100.00
2018-03-28T22:23:57.961Z,100.00
2018-03-28T22:26:23.710Z,100.00
2018-03-28T22:28:49.449Z,100.00
2018-03-28T22:31:15.195Z,100.00
2018-03-28T22:33:40.937Z,100.00
2018-03-28T22:36:06.733Z,100.00
2018-03-28T22:38:32.422Z,100.00
2018-03-28T22:40:58.166Z,100.00
2018-03-28T22:43:23.904Z,100.00
2018-03-28T22:45:49.655Z,100.00
2018-03-28T22:48:15.408Z,100.00
2018-03-28T22:50:41.171Z,100.00
2018-03-28T22:53:06.909Z,100.00
2018-03-28T22:55:32.657Z,100.00
2018-03-28T22:57:58.416Z,100.00
2018-03-28T23:00:24.170Z,100.00
2018-03-28T23:02:49.895Z,100.00
2018-03-28T23:05:15.634Z,100.00
2018-03-28T23:07:41.382Z,100.00
2018-03-28T23:10:07.138Z,100.00
2018-03-28T23:12:33.171Z,100.00
2018-03-28T23:14:58.969Z,100.00
2018-03-28T23:17:24.719Z,100.00
2018-03-28T23:19:50.455Z,100.00
2018-03-28T23:22:28.634Z,100.00
2018-03-28T23:24:54.462Z,100.00
2018-03-28T23:27:20.208Z,100.00
2018-03-28T23:29:45.950Z,100.00
2018-03-28T23:32:12.755Z,100.00
2018-03-28T23:34:38.760Z,100.00
2018-03-28T23:37:04.518Z,100.00
2018-03-28T23:39:30.254Z,100.00
2018-03-28T23:41:56.474Z,100.00
2018-03-28T23:44:22.241Z,100.00
2018-03-28T23:46:47.986Z,100.00
2018-03-28T23:49:14.016Z,100.00
2018-03-28T23:51:39.806Z,100.00
2018-03-28T23:54:05.671Z,100.00
2018-03-28T23:56:31.404Z,100.00
2018-03-28T23:58:57.460Z,100.00
